Latest Weather Observations for Wandering

IDW60801

Issued at 7:23 pm WST Wednesday 5 August 2020 (issued every 10 minutes, with the page automatically refreshed every 10 minutes)

About weather observations | Map of weather stations | Latest weather observations for WA | Other Formats
Station Details ID: 010917 Name: WANDERING Lat: -32.67 Lon: 116.67 Height: 275.0 m
Data from the previous 72 hours. | See also: Recent months at Wandering
Date/Time
WST
Temp
°C
App
Temp
°C
Dew
Point
°C
Rel
Hum
%
Delta-T
°C
Wind Press
QNH
hPa
Press
MSL
hPa
Rain since
9am
mm
Dir  Spd
km/h
Gust
km/h
Spd
kts
Gust
kts
05/07:00pm 8.1 6.1 6.2 88 0.9 SE 6 7 3 4 - - 0.0
05/06:30pm 8.9 7.9 5.6 80 1.5 CALM 0 0 0 0 - - 0.0
05/06:00pm 11.1 9.2 6.8 75 2.1 SSE 6 9 3 5 - - 0.0
05/05:30pm 12.2 9.5 7.3 72 2.4 SSE 11 17 6 9 - - 0.0
05/05:00pm 12.9 9.1 7.4 69 2.7 SSE 17 22 9 12 - - 0.0
05/04:30pm 14.2 10.4 7.7 65 3.3 SSE 17 24 9 13 - - 0.0
05/04:00pm 14.6 10.4 8.3 66 3.2 SSE 20 32 11 17 - - 0.0
05/03:30pm 14.4 10.0 8.8 69 2.9 SE 22 30 12 16 - - 0.0
05/03:00pm 14.9 11.6 9.5 70 2.8 SSE 17 26 9 14 - - 0.0
05/02:30pm 14.9 10.5 9.1 68 3.0 SSE 22 33 12 18 - - 0.0
05/02:00pm 14.4 9.6 9.0 70 2.8 SSE 24 33 13 18 - - 0.0
05/01:30pm 14.2 9.4 8.8 70 2.8 SSE 24 39 13 21 - - 0.0
05/01:00pm 13.4 9.2 8.3 71 2.6 SSE 20 30 11 16 - - 0.0
05/12:30pm 13.0 8.5 8.7 75 2.2 SSE 22 39 12 21 - - 0.0
05/12:00pm 13.4 8.4 9.5 77 2.0 SSE 26 39 14 21 - - 0.0
05/11:30am 13.2 7.5 8.5 73 2.4 SSE 28 41 15 22 - - 0.0
05/11:00am 13.7 9.4 9.4 75 2.2 SSE 22 35 12 19 - - 0.0
05/10:30am 14.0 8.6 9.4 74 2.4 SSE 28 39 15 21 - - 0.0
05/10:00am 13.6 8.7 9.8 78 2.0 SSE 26 37 14 20 - - 0.0
05/09:30am 13.0 8.2 8.9 76 2.1 SSE 24 35 13 19 - - 0.0
05/09:00am 13.1 8.5 9.5 79 1.9 SSE 24 35 13 19 - - 0.4
05/08:30am 12.3 8.3 9.0 80 1.7 SSE 20 35 11 19 - - 0.4
05/08:00am 11.6 7.5 8.6 82 1.5 SSE 20 33 11 18 - - 0.4
05/07:30am 11.3 7.2 8.7 84 1.3 SSE 20 30 11 16 - - 0.4
05/07:00am 11.2 6.3 8.4 83 1.4 SSE 24 33 13 18 - - 0.4
05/06:30am 11.1 6.6 8.5 84 1.3 SSE 22 35 12 19 - - 0.4
05/06:00am 11.2 6.6 8.2 82 1.5 SSE 22 35 12 19 - - 0.4
05/05:30am 11.2 6.3 8.4 83 1.4 SSE 24 41 13 22 - - 0.4
05/05:00am 11.2 7.0 8.4 83 1.4 SSE 20 33 11 18 - - 0.4
05/04:30am 11.1 6.5 8.3 83 1.4 SSE 22 35 12 19 - - 0.4
05/04:00am 11.2 6.7 8.4 83 1.4 SSE 22 33 12 18 - - 0.4
05/03:30am 11.2 6.7 8.4 83 1.4 SSE 22 32 12 17 - - 0.4
05/03:00am 11.2 7.0 8.4 83 1.4 SSE 20 32 11 17 - - 0.4
05/02:30am 11.3 7.4 8.5 83 1.4 S 19 30 10 16 - - 0.4
05/02:00am 11.4 7.4 8.4 82 1.5 S 19 33 10 18 - - 0.4
05/01:30am 11.4 7.4 8.4 82 1.5 S 19 35 10 19 - - 0.4
05/01:00am 11.5 7.0 8.4 81 1.5 S 22 33 12 18 - - 0.4
05/12:30am 11.3 7.9 9.0 86 1.2 S 17 28 9 15 - - 0.4
05/12:00am 11.3 7.9 9.2 87 1.1 S 17 35 9 19 - - 0.4
 
Date/Time
WST
Temp
°C
App
Temp
°C
Dew
Point
°C
Rel
Hum
%
Delta-T
°C
Wind Press
QNH
hPa
Press
MSL
hPa
Rain since
9am
mm
Dir  Spd
km/h
Gust
km/h
Spd
kts
Gust
kts
04/11:30pm 11.2 7.4 9.1 87 1.1 S 19 30 10 16 - - 0.4
04/11:00pm 11.3 7.9 9.2 87 1.1 S 17 26 9 14 - - 0.4
04/10:30pm 11.6 7.8 9.0 84 1.3 S 19 30 10 16 - - 0.4
04/10:00pm 11.6 8.1 8.8 83 1.4 S 17 32 9 17 - - 0.4
04/09:30pm 11.7 7.9 8.9 83 1.4 S 19 26 10 14 - - 0.4
04/09:00pm 11.8 7.9 8.6 81 1.6 S 19 30 10 16 - - 0.4
04/08:30pm 11.8 7.7 8.8 82 1.5 S 20 35 11 19 - - 0.4
04/08:00pm 11.9 7.8 8.7 81 1.6 S 20 32 11 17 - - 0.4
04/07:30pm 11.9 7.8 8.7 81 1.6 SSE 20 32 11 17 - - 0.4
04/07:00pm 11.9 8.5 9.1 83 1.4 S 17 26 9 14 - - 0.4
04/06:30pm 12.0 8.0 9.0 82 1.5 S 20 32 11 17 - - 0.4
04/06:00pm 11.7 9.1 9.3 85 1.2 S 13 24 7 13 - - 0.4
04/05:30pm 11.8 8.9 9.5 86 1.2 S 15 24 8 13 - - 0.4
04/05:00pm 12.0 9.2 9.9 87 1.1 S 15 26 8 14 - - 0.4
04/04:30pm 12.0 9.6 9.9 87 1.1 S 13 20 7 11 - - 0.4
04/04:00pm 11.8 9.8 10.0 89 0.9 SSE 11 15 6 8 - - 0.2
04/03:30pm 12.4 8.9 8.9 79 1.8 SSE 17 20 9 11 - - 0.2
04/03:00pm 13.5 10.2 8.1 70 2.7 S 15 24 8 13 - - 0.2
04/02:30pm 13.9 10.0 7.2 64 3.3 SSW 17 30 9 16 - - 0.2
04/02:00pm 13.8 11.0 8.6 71 2.7 S 13 19 7 10 - - 0.2
04/01:30pm 13.1 10.6 8.0 71 2.6 SSW 11 17 6 9 - - 0.2
04/01:00pm 12.1 8.5 6.6 69 2.7 SSE 15 20 8 11 - - 0.2
04/12:30pm 11.4 7.8 6.7 73 2.3 S 15 20 8 11 - - 0.2
04/12:00pm 11.7 8.7 7.8 77 1.9 S 13 17 7 9 - - 0.2
04/11:30am 10.6 6.6 6.7 77 1.9 S 17 22 9 12 - - 0.0
04/11:00am 10.8 7.8 7.5 80 1.6 S 13 20 7 11 - - 0.0
04/10:30am 10.5 7.0 7.2 80 1.6 S 15 20 8 11 - - 0.0
04/10:00am 10.3 7.3 7.7 84 1.3 SSE 13 20 7 11 - - 0.0
04/09:30am 9.5 6.5 7.6 88 0.9 SSE 13 19 7 10 - - 0.0
04/09:00am 8.9 5.0 7.2 89 0.8 SSE 17 24 9 13 - - 1.4
04/08:30am 8.2 5.1 7.3 94 0.4 SSE 13 19 7 10 - - 1.4
04/08:00am 7.7 4.5 6.8 94 0.4 SSE 13 19 7 10 - - 1.4
04/07:30am 7.4 4.2 6.8 96 0.3 SSE 13 17 7 9 - - 1.4
04/07:00am 6.8 4.3 6.5 98 0.1 SSE 9 15 5 8 - - 1.4
04/06:30am 6.5 4.0 6.4 99 0.0 SSE 9 13 5 7 - - 1.4
04/06:00am 6.5 3.2 6.4 99 0.0 SSE 13 17 7 9 - - 1.4
04/05:30am 6.1 2.7 6.0 99 0.0 SE 13 17 7 9 - - 1.4
04/05:00am 5.4 3.0 5.3 99 0.0 SSE 7 9 4 5 - - 1.4
04/04:30am 5.2 3.0 5.2 100 0.0 SE 6 9 3 5 - - 1.4
04/04:00am 5.2 3.3 5.1 99 0.0 ESE 4 7 2 4 - - 1.4
04/03:30am 4.5 2.5 4.4 99 0.0 S 4 7 2 4 - - 1.4
04/03:00am 4.9 2.6 4.6 98 0.1 E 6 7 3 4 - - 1.4
04/02:30am 5.4 3.1 5.0 97 0.2 S 6 7 3 4 - - 1.4
04/02:00am 6.4 4.3 5.8 96 0.3 S 6 9 3 5 - - 1.4
04/01:30am 6.9 6.1 6.3 96 0.3 CALM 0 0 0 0 - - 1.4
04/01:00am 6.9 5.0 6.6 98 0.1 SW 6 9 3 5 - - 1.4
04/12:30am 6.4 5.6 6.3 99 0.0 CALM 0 6 0 3 - - 1.4
04/12:00am 6.0 5.1 6.0 100 0.0 CALM 0 0 0 0 - - 1.4
 
Date/Time
WST
Temp
°C
App
Temp
°C
Dew
Point
°C
Rel
Hum
%
Delta-T
°C
Wind Press
QNH
hPa
Press
MSL
hPa
Rain since
9am
mm
Dir  Spd
km/h
Gust
km/h
Spd
kts
Gust
kts
03/11:30pm 5.1 4.0 5.0 99 0.0 CALM 0 0 0 0 - - 1.4
03/11:00pm 4.7 2.4 4.6 99 0.0 ESE 6 6 3 3 - - 1.4
03/10:30pm 4.7 2.3 4.4 98 0.1 SE 6 7 3 4 - - 1.4
03/10:00pm 5.1 2.7 4.5 96 0.3 SE 6 9 3 5 - - 1.4
03/09:30pm 6.5 5.6 5.9 96 0.3 CALM 0 0 0 0 - - 1.4
03/09:00pm 7.5 6.8 6.8 95 0.3 CALM 0 0 0 0 - - 1.4
03/08:30pm 8.0 6.1 6.8 92 0.6 SSE 6 9 3 5 - - 1.4
03/08:00pm 8.2 6.1 6.8 91 0.7 SE 7 9 4 5 - - 1.2
03/07:30pm 8.5 6.1 6.8 89 0.8 ESE 9 15 5 8 - - 1.0
03/07:00pm 9.4 6.7 7.3 87 1.0 ENE 11 17 6 9 - - 0.8
03/06:30pm 9.8 7.2 7.6 86 1.1 SSE 11 17 6 9 - - 0.4
03/06:00pm 10.2 7.4 7.1 81 1.5 SE 11 17 6 9 - - 0.2
03/05:30pm 10.8 7.3 7.1 78 1.8 SE 15 20 8 11 - - 0.2
03/05:00pm 11.1 8.5 7.6 79 1.7 S 11 15 6 8 - - 0.2
03/04:30pm 11.5 9.1 6.8 73 2.3 NE 9 17 5 9 - - 0.2
03/04:00pm 12.6 9.7 4.8 59 3.6 NNW 9 13 5 7 - - 0.2
03/03:30pm 13.3 10.1 5.2 58 3.8 N 11 15 6 8 - - 0.2
03/03:00pm 12.7 10.2 4.7 58 3.7 N 7 15 4 8 - - 0.2
03/02:30pm 13.0 10.2 5.2 59 3.7 NE 9 20 5 11 - - 0.2
03/02:00pm 12.9 9.4 5.6 61 3.5 NW 13 19 7 10 - - 0.2
03/01:30pm 12.7 9.8 6.7 67 2.9 N 11 17 6 9 - - 0.2
03/01:00pm 13.1 11.2 6.9 66 3.0 NNE 6 11 3 6 - - 0.2
03/12:30pm 12.2 10.0 5.1 62 3.3 NNW 6 13 3 7 - - 0.2
03/12:00pm 11.8 9.6 6.3 69 2.6 NE 7 13 4 7 - - 0.2
03/11:30am 10.6 7.9 5.8 72 2.3 NNW 9 15 5 8 - - 0.2
03/11:00am 10.7 8.2 6.6 76 2.0 N 9 13 5 7 - - 0.2
03/10:30am 10.8 7.5 6.6 75 2.0 NNW 13 17 7 9 - - 0.2
03/10:00am 10.2 7.1 7.3 82 1.4 NNW 13 20 7 11 - - 0.2
03/09:30am 8.4 6.5 6.5 88 0.9 N 6 11 3 6 - - 0.2
03/09:00am 6.4 4.4 6.3 99 0.0 NNW 6 7 3 4 - - 6.6
03/08:30am 5.4 3.2 5.4 100 0.0 NW 6 9 3 5 - - 6.6
03/08:00am 4.2 1.8 4.2 100 0.0 NNW 6 7 3 4 - - 6.6
03/07:30am 2.3 -0.7 2.3 100 0.0 NW 7 11 4 6 - - 6.6
03/07:00am 2.7 1.1 2.7 100 0.0 CALM 0 0 0 0 - - 6.6
03/06:30am 2.8 0.9 2.8 100 0.0 WNW 2 6 1 3 - - 6.6
03/06:00am 4.0 2.7 4.0 100 0.0 CALM 0 4 0 2 - - 6.6
03/05:30am 3.5 0.0 3.5 100 0.0 NNW 11 11 6 6 - - 6.6
03/05:00am 3.5 0.4 3.5 100 0.0 NW 9 13 5 7 - - 6.6
03/04:30am 3.6 1.1 3.5 99 0.0 WNW 6 7 3 4 - - 6.6
03/04:00am 4.3 1.9 4.2 99 0.0 WNW 6 7 3 4 - - 6.6
03/03:30am 4.8 2.4 4.5 98 0.1 NW 6 9 3 5 - - 6.6
03/03:00am 5.1 2.6 4.8 98 0.1 NNW 7 11 4 6 - - 6.6
03/02:30am 5.7 3.5 5.3 97 0.2 S 6 7 3 4 - - 6.6
03/02:00am 5.8 4.3 5.2 96 0.3 E 2 6 1 3 - - 6.6
03/01:30am 6.3 4.0 5.6 95 0.3 E 7 9 4 5 - - 6.6
03/01:00am 6.4 4.2 5.5 94 0.4 WSW 6 7 3 4 - - 6.0
03/12:30am 6.5 4.2 5.5 93 0.5 SW 7 13 4 7 - - 5.8
03/12:00am 6.6 3.5 5.4 92 0.5 S 11 17 6 9 - - 5.2
 
Date/Time
WST
Temp
°C
App
Temp
°C
Dew
Point
°C
Rel
Hum
%
Delta-T
°C
Wind Press
QNH
hPa
Press
MSL
hPa
Rain since
9am
mm
Dir  Spd
km/h
Gust
km/h
Spd
kts
Gust
kts
02/11:30pm 7.8 5.4 7.2 96 0.3 S 9 15 5 8 - - 4.8
02/11:00pm 7.9 5.2 7.5 97 0.2 SSW 11 19 6 10 - - 4.4
02/10:30pm 9.2 7.3 8.9 98 0.1 S 9 11 5 6 - - 2.0
02/10:00pm 9.3 7.7 8.7 96 0.3 S 7 9 4 5 - - 1.4
02/09:30pm 9.5 7.4 8.4 93 0.5 S 9 11 5 6 - - 1.0
02/09:00pm 10.1 8.0 8.2 88 0.9 SSE 9 13 5 7 - - 0.2
02/08:30pm 10.5 7.6 8.1 85 1.2 S 13 20 7 11 - - 0.2
02/08:00pm 10.0 8.7 9.2 95 0.4 WSW 6 7 3 4 - - 0.2
02/07:30pm 9.2 8.0 8.1 93 0.5 WNW 4 7 2 4 - - 0.2

Other formats

Comma delimited format used in spreadsheet applications
http://www.bom.gov.au/fwo/IDW60801/IDW60801.95640.axf

JavaScript Object Notation format (JSON) in row-major order
http://www.bom.gov.au/fwo/IDW60801/IDW60801.95640.json

Data quality

Most of these data are generated automatically and are frequently updated. Quality checks on data are not normally performed. It is possible for incorrect values to appear. Refer to information at About Latest Weather Observations and please check the disclaimer before using these data.